createdAt,value
2017-01-13T00:00:31.317Z,0
2017-01-13T00:01:42.763Z,0
2017-01-13T00:02:54.159Z,0
2017-01-13T00:04:05.567Z,0
2017-01-13T00:05:17.175Z,0
2017-01-13T00:06:28.768Z,0
2017-01-13T00:07:40.212Z,0
2017-01-13T00:08:51.602Z,0
2017-01-13T00:10:03.202Z,0
2017-01-13T00:11:14.603Z,0
2017-01-13T00:12:25.991Z,0
2017-01-13T00:13:37.443Z,0
2017-01-13T00:14:48.837Z,0
2017-01-13T00:16:00.236Z,0
2017-01-13T00:17:11.629Z,0
2017-01-13T00:18:23.023Z,0
2017-01-13T00:19:34.469Z,0
2017-01-13T00:20:45.861Z,0
2017-01-13T00:21:57.264Z,0
2017-01-13T00:23:08.659Z,0
2017-01-13T00:24:20.062Z,0
2017-01-13T00:25:31.510Z,0
2017-01-13T00:26:42.918Z,0
2017-01-13T00:27:54.316Z,0
2017-01-13T00:29:05.721Z,0
2017-01-13T00:30:17.522Z,0
2017-01-13T00:31:28.979Z,0
2017-01-13T00:32:40.386Z,0
2017-01-13T00:33:51.780Z,0
2017-01-13T00:35:03.214Z,0
2017-01-13T00:36:14.618Z,0
2017-01-13T00:37:26.268Z,0
2017-01-13T00:38:37.667Z,0
2017-01-13T00:39:49.071Z,0
2017-01-13T00:41:00.876Z,0
2017-01-13T00:42:12.279Z,0
2017-01-13T00:43:23.753Z,0
2017-01-13T00:44:35.145Z,0
2017-01-13T00:45:46.551Z,0
2017-01-13T00:46:57.954Z,0
2017-01-13T00:48:09.344Z,0
2017-01-13T00:49:20.798Z,0
2017-01-13T00:50:32.200Z,0
2017-01-13T00:51:43.597Z,0
2017-01-13T00:52:54.997Z,0
2017-01-13T00:54:06.595Z,0
2017-01-13T00:55:18.046Z,0
2017-01-13T00:56:29.440Z,0
2017-01-13T00:57:40.835Z,0
2017-01-13T00:58:52.437Z,0
2017-01-13T01:00:03.840Z,0
2017-01-13T01:01:15.295Z,0
2017-01-13T01:02:26.697Z,0
2017-01-13T01:03:38.089Z,0
2017-01-13T01:04:49.489Z,0
2017-01-13T01:06:00.885Z,0
2017-01-13T01:07:12.347Z,0
2017-01-13T01:08:23.753Z,0
2017-01-13T01:09:35.350Z,0
2017-01-13T01:10:46.755Z,0
2017-01-13T01:11:58.563Z,0
2017-01-13T01:13:10.218Z,0
2017-01-13T01:14:21.621Z,0
2017-01-13T01:15:33.014Z,0
2017-01-13T01:16:44.409Z,0
2017-01-13T01:17:55.815Z,0
2017-01-13T01:19:07.298Z,0
2017-01-13T01:20:18.708Z,0
2017-01-13T01:21:30.116Z,0
2017-01-13T01:22:41.515Z,0
2017-01-13T01:23:52.906Z,0
2017-01-13T01:25:04.355Z,0
2017-01-13T01:26:15.959Z,0
2017-01-13T01:27:27.564Z,0
2017-01-13T01:28:38.964Z,0
2017-01-13T01:29:50.375Z,0
2017-01-13T01:31:02.027Z,0
2017-01-13T01:32:13.434Z,0
2017-01-13T01:33:24.836Z,0
2017-01-13T01:34:36.228Z,0
2017-01-13T01:35:47.687Z,0
2017-01-13T01:36:59.292Z,0
2017-01-13T01:38:10.696Z,0
2017-01-13T01:39:22.300Z,0
2017-01-13T01:40:33.702Z,0
2017-01-13T01:41:45.157Z,0
2017-01-13T01:42:56.566Z,0
2017-01-13T01:44:07.958Z,0
2017-01-13T01:45:19.356Z,0
2017-01-13T01:46:30.759Z,0
2017-01-13T01:47:42.427Z,0
2017-01-13T01:48:54.032Z,0
2017-01-13T01:50:05.434Z,0
2017-01-13T01:51:16.835Z,0
2017-01-13T01:52:28.233Z,0
2017-01-13T01:53:39.683Z,0
2017-01-13T01:54:51.078Z,0
2017-01-13T01:56:02.473Z,0
2017-01-13T01:57:13.869Z,0
2017-01-13T01:58:25.268Z,0
2017-01-13T01:59:36.715Z,0
2017-01-13T02:00:48.119Z,0
2017-01-13T02:01:59.521Z,0
2017-01-13T02:03:10.925Z,0
2017-01-13T02:04:22.319Z,0
2017-01-13T02:05:33.761Z,0
2017-01-13T02:06:45.170Z,0
2017-01-13T02:07:56.773Z,0
2017-01-13T02:09:08.170Z,0
2017-01-13T02:10:19.576Z,0
2017-01-13T02:11:31.057Z,0
2017-01-13T02:12:42.455Z,0
2017-01-13T02:13:54.087Z,0
2017-01-13T02:15:05.485Z,0
2017-01-13T02:16:16.893Z,0
2017-01-13T02:17:28.548Z,0
2017-01-13T02:18:39.951Z,0
2017-01-13T02:19:51.357Z,0
2017-01-13T02:21:02.965Z,0
2017-01-13T02:22:14.566Z,0
2017-01-13T02:23:26.014Z,0
2017-01-13T02:24:37.405Z,0
2017-01-13T02:25:48.818Z,0
2017-01-13T02:27:00.222Z,0
2017-01-13T02:28:11.625Z,0
2017-01-13T02:29:23.077Z,0
2017-01-13T02:30:34.477Z,0
2017-01-13T02:31:45.875Z,0
2017-01-13T02:32:57.274Z,0
2017-01-13T02:34:08.675Z,0
2017-01-13T02:35:20.132Z,0
2017-01-13T02:36:31.556Z,0
2017-01-13T02:37:42.955Z,0
2017-01-13T02:38:54.357Z,0
2017-01-13T02:40:05.958Z,0
2017-01-13T02:41:17.607Z,0
2017-01-13T02:42:29.011Z,0
2017-01-13T02:43:40.417Z,0
2017-01-13T02:44:52.012Z,0
2017-01-13T02:46:03.418Z,0
2017-01-13T02:47:15.266Z,0
2017-01-13T02:48:26.668Z,0
2017-01-13T02:49:38.068Z,0
2017-01-13T02:50:49.666Z,0
2017-01-13T02:52:01.344Z,0
2017-01-13T02:53:12.803Z,0
2017-01-13T02:54:24.207Z,0
2017-01-13T02:55:35.610Z,0
2017-01-13T02:56:47.007Z,0
2017-01-13T02:57:58.405Z,0
2017-01-13T02:59:09.852Z,0
2017-01-13T03:00:21.261Z,0
2017-01-13T03:01:32.858Z,0
2017-01-13T03:02:44.261Z,0
2017-01-13T03:03:55.662Z,0
2017-01-13T03:05:07.306Z,0
2017-01-13T03:06:18.704Z,0
2017-01-13T03:07:30.302Z,0
2017-01-13T03:08:41.696Z,0
2017-01-13T03:09:53.099Z,0
2017-01-13T03:11:04.701Z,0
2017-01-13T03:12:16.104Z,0
2017-01-13T03:13:27.506Z,0
2017-01-13T03:14:39.107Z,0
2017-01-13T03:15:50.556Z,0
2017-01-13T03:17:01.961Z,0
2017-01-13T03:18:13.357Z,0
2017-01-13T03:19:24.759Z,0
2017-01-13T03:20:36.154Z,0
2017-01-13T03:21:47.636Z,0
2017-01-13T03:22:59.048Z,0
2017-01-13T03:24:10.455Z,0
2017-01-13T03:25:21.859Z,0
2017-01-13T03:26:33.257Z,0
2017-01-13T03:27:44.906Z,0
2017-01-13T03:28:56.308Z,0
2017-01-13T03:30:07.716Z,0
2017-01-13T03:31:19.112Z,0
2017-01-13T03:32:30.509Z,0
2017-01-13T03:33:41.955Z,0
2017-01-13T03:34:53.358Z,0
2017-01-13T03:36:04.955Z,0
2017-01-13T03:37:16.553Z,0
2017-01-13T03:38:27.977Z,0
2017-01-13T03:39:39.430Z,0
2017-01-13T03:40:50.832Z,0
2017-01-13T03:42:02.437Z,0
2017-01-13T03:43:13.830Z,0
2017-01-13T03:44:25.229Z,0
2017-01-13T03:45:36.677Z,0
2017-01-13T03:46:48.076Z,0
2017-01-13T03:47:59.481Z,0
2017-01-13T03:49:10.877Z,0
2017-01-13T03:50:22.272Z,0
2017-01-13T03:51:33.918Z,0
2017-01-13T03:52:45.318Z,0
2017-01-13T03:53:56.922Z,0
2017-01-13T03:55:08.312Z,0
2017-01-13T03:56:19.932Z,0
2017-01-13T03:57:31.376Z,0
2017-01-13T03:58:42.779Z,0
2017-01-13T03:59:54.177Z,0
2017-01-13T04:01:05.578Z,0
2017-01-13T04:02:16.975Z,0
2017-01-13T04:03:28.424Z,0
2017-01-13T04:04:39.822Z,0
2017-01-13T04:05:51.236Z,0
2017-01-13T04:07:02.640Z,0
2017-01-13T04:08:14.035Z,0
2017-01-13T04:09:25.698Z,0
2017-01-13T04:10:37.097Z,0
2017-01-13T04:11:48.501Z,0
2017-01-13T04:12:59.904Z,0
2017-01-13T04:14:11.298Z,0
2017-01-13T04:15:22.742Z,0
2017-01-13T04:16:34.346Z,0
2017-01-13T04:17:45.739Z,0
2017-01-13T04:18:57.145Z,0
2017-01-13T04:20:08.550Z,0
2017-01-13T04:21:19.996Z,0
2017-01-13T04:22:31.390Z,0
2017-01-13T04:23:42.808Z,0
2017-01-13T04:24:54.209Z,0
2017-01-13T04:26:05.611Z,0
2017-01-13T04:27:17.052Z,0
2017-01-13T04:28:28.458Z,0
2017-01-13T04:29:39.862Z,0
2017-01-13T04:30:51.271Z,0
2017-01-13T04:32:02.675Z,0
2017-01-13T04:33:14.127Z,0
2017-01-13T04:34:25.547Z,0
2017-01-13T04:35:36.951Z,0
2017-01-13T04:36:48.349Z,0
2017-01-13T04:37:59.749Z,0
2017-01-13T04:39:11.201Z,0
2017-01-13T04:40:22.598Z,0
2017-01-13T04:41:33.995Z,0
2017-01-13T04:42:45.399Z,0
2017-01-13T04:43:56.794Z,0
2017-01-13T04:45:08.252Z,0
2017-01-13T04:46:19.657Z,0
2017-01-13T04:47:31.060Z,0
2017-01-13T04:48:42.460Z,0
2017-01-13T04:49:53.863Z,0
2017-01-13T04:51:05.263Z,0
2017-01-13T04:52:16.861Z,0
2017-01-13T04:53:28.667Z,0
2017-01-13T04:54:40.061Z,0
2017-01-13T04:55:51.513Z,0
2017-01-13T04:57:02.914Z,0
2017-01-13T04:58:14.510Z,0
2017-01-13T04:59:25.913Z,0
2017-01-13T05:00:37.309Z,0
2017-01-13T05:01:48.713Z,0
2017-01-13T05:03:00.118Z,0
2017-01-13T05:04:11.520Z,0
2017-01-13T05:05:22.942Z,0
2017-01-13T05:06:34.388Z,0
2017-01-13T05:07:45.793Z,0
2017-01-13T05:08:57.393Z,0
2017-01-13T05:10:08.798Z,0
2017-01-13T05:11:20.195Z,0
2017-01-13T05:12:31.644Z,0
2017-01-13T05:13:43.053Z,0
2017-01-13T05:14:54.457Z,0
2017-01-13T05:16:05.848Z,0
2017-01-13T05:17:17.247Z,0
2017-01-13T05:18:28.700Z,0
2017-01-13T05:19:40.082Z,0
2017-01-13T05:20:51.498Z,0
2017-01-13T05:22:02.889Z,0
2017-01-13T05:23:14.492Z,0
2017-01-13T05:24:25.937Z,0
2017-01-13T05:25:37.329Z,0
2017-01-13T05:26:48.726Z,0
2017-01-13T05:28:00.126Z,0
2017-01-13T05:29:11.530Z,0
2017-01-13T05:30:23.122Z,0
2017-01-13T05:31:34.517Z,0
2017-01-13T05:32:45.917Z,0
2017-01-13T05:33:57.315Z,0
2017-01-13T05:35:08.763Z,0
2017-01-13T05:36:20.367Z,0
2017-01-13T05:37:31.970Z,0
2017-01-13T05:38:43.369Z,0
2017-01-13T05:39:54.776Z,0
2017-01-13T05:41:06.222Z,0
2017-01-13T05:42:17.650Z,0
2017-01-13T05:43:29.045Z,0
2017-01-13T05:44:40.444Z,0
2017-01-13T05:45:51.843Z,0
2017-01-13T05:47:03.297Z,0
2017-01-13T05:48:14.889Z,0
2017-01-13T05:49:26.292Z,0
2017-01-13T05:50:37.688Z,0
2017-01-13T05:51:49.285Z,0
2017-01-13T05:53:00.756Z,0
2017-01-13T05:54:12.148Z,0
2017-01-13T05:55:23.944Z,0
2017-01-13T05:56:35.346Z,0
2017-01-13T05:57:46.744Z,0
2017-01-13T05:58:58.194Z,0
2017-01-13T06:00:09.595Z,0
2017-01-13T06:01:20.989Z,0
2017-01-13T06:02:32.411Z,0
2017-01-13T06:03:43.818Z,0
2017-01-13T06:04:55.471Z,0
2017-01-13T06:06:06.859Z,0
2017-01-13T06:07:18.253Z,0
2017-01-13T06:08:29.645Z,0
2017-01-13T06:09:41.042Z,0
2017-01-13T06:10:52.440Z,0
2017-01-13T06:12:03.840Z,0
2017-01-13T06:13:15.242Z,0
2017-01-13T06:14:26.638Z,0
2017-01-13T06:15:38.085Z,0
2017-01-13T06:16:49.680Z,0
2017-01-13T06:18:01.081Z,0
2017-01-13T06:19:12.477Z,0
2017-01-13T06:20:23.872Z,0
2017-01-13T06:21:35.320Z,0
2017-01-13T06:22:46.920Z,0
2017-01-13T06:23:58.315Z,0
2017-01-13T06:25:09.719Z,0
2017-01-13T06:26:21.119Z,0
2017-01-13T06:27:32.768Z,0
2017-01-13T06:28:44.159Z,0
2017-01-13T06:29:55.553Z,0
2017-01-13T06:31:06.950Z,0
2017-01-13T06:32:18.369Z,0
2017-01-13T06:33:30.020Z,0
2017-01-13T06:34:41.418Z,0
2017-01-13T06:35:53.020Z,0
2017-01-13T06:37:04.426Z,0
2017-01-13T06:38:15.821Z,0
2017-01-13T06:39:27.269Z,0
2017-01-13T06:40:38.671Z,0
2017-01-13T06:41:50.098Z,0
2017-01-13T06:43:01.497Z,0
2017-01-13T06:44:12.893Z,0
2017-01-13T06:45:24.344Z,0
2017-01-13T06:46:35.736Z,0
2017-01-13T06:47:47.531Z,0
2017-01-13T06:48:58.933Z,0
2017-01-13T06:50:10.344Z,0
2017-01-13T06:51:21.989Z,0
2017-01-13T06:52:33.391Z,0
2017-01-13T06:53:44.800Z,0
2017-01-13T06:54:56.200Z,0
2017-01-13T06:56:07.591Z,0
2017-01-13T06:57:19.431Z,0
2017-01-13T06:58:30.823Z,0
2017-01-13T06:59:42.218Z,0
2017-01-13T07:00:53.622Z,0
2017-01-13T07:02:05.008Z,0
2017-01-13T07:03:16.658Z,0
2017-01-13T07:04:28.053Z,0
2017-01-13T07:05:39.463Z,0
2017-01-13T07:06:50.856Z,0
2017-01-13T07:08:02.249Z,0
2017-01-13T07:09:13.701Z,0
2017-01-13T07:10:25.099Z,0
2017-01-13T07:11:36.498Z,0
2017-01-13T07:12:47.890Z,0
2017-01-13T07:13:59.290Z,0
2017-01-13T07:15:10.943Z,0
2017-01-13T07:16:22.348Z,0
2017-01-13T07:17:33.743Z,0
2017-01-13T07:18:45.544Z,0
2017-01-13T07:19:56.945Z,0
2017-01-13T07:21:08.345Z,0
2017-01-13T07:22:19.746Z,0
2017-01-13T07:23:31.146Z,0
2017-01-13T07:24:42.543Z,0
2017-01-13T07:25:54.000Z,0
2017-01-13T07:27:05.399Z,0
2017-01-13T07:28:16.796Z,0
2017-01-13T07:29:28.201Z,0
2017-01-13T07:30:39.598Z,0
2017-01-13T07:31:51.032Z,0
2017-01-13T07:33:02.634Z,0
2017-01-13T07:34:14.026Z,5
2017-01-13T07:35:25.424Z,5
2017-01-13T07:36:36.824Z,5
2017-01-13T07:37:48.273Z,5
2017-01-13T07:38:59.673Z,5
2017-01-13T07:40:11.060Z,5
2017-01-13T07:41:22.686Z,10
2017-01-13T07:42:34.082Z,10
2017-01-13T07:43:45.529Z,10
2017-01-13T07:44:56.946Z,10
2017-01-13T07:46:08.368Z,10
2017-01-13T07:47:19.771Z,15
2017-01-13T07:48:31.167Z,15
2017-01-13T07:49:42.847Z,15
2017-01-13T07:50:54.250Z,20
2017-01-13T07:52:05.668Z,20
2017-01-13T07:53:17.278Z,20
2017-01-13T07:54:28.670Z,25
2017-01-13T07:55:40.336Z,25
2017-01-13T07:56:51.942Z,25
2017-01-13T07:58:03.353Z,30
2017-01-13T07:59:14.954Z,30
2017-01-13T08:00:26.546Z,30
2017-01-13T08:01:38.197Z,35
2017-01-13T08:02:49.592Z,35
2017-01-13T08:04:00.993Z,40
2017-01-13T08:05:12.392Z,40
2017-01-13T08:06:23.796Z,40
2017-01-13T08:07:35.445Z,40
2017-01-13T08:08:47.050Z,40
2017-01-13T08:09:58.443Z,40
2017-01-13T08:11:09.851Z,40
2017-01-13T08:12:21.247Z,45
2017-01-13T08:13:32.697Z,50
2017-01-13T08:14:44.099Z,55
2017-01-13T08:15:55.505Z,55
2017-01-13T08:17:06.908Z,60
2017-01-13T08:18:18.309Z,65
2017-01-13T08:19:29.808Z,65
2017-01-13T08:20:41.218Z,70
2017-01-13T08:21:52.620Z,70
2017-01-13T08:23:04.026Z,70
2017-01-13T08:24:15.450Z,70
2017-01-13T08:25:26.901Z,70
2017-01-13T08:26:38.306Z,70
2017-01-13T08:27:49.713Z,75
2017-01-13T08:29:01.109Z,75
2017-01-13T08:30:12.511Z,80
2017-01-13T08:31:23.960Z,80
2017-01-13T08:32:35.351Z,85
2017-01-13T08:33:46.945Z,85
2017-01-13T08:34:58.350Z,90
2017-01-13T08:36:10.161Z,100
2017-01-13T08:37:21.612Z,105
2017-01-13T08:38:33.012Z,115
2017-01-13T08:39:44.416Z,120
2017-01-13T08:40:55.841Z,125
2017-01-13T08:42:07.244Z,125
2017-01-13T08:43:18.724Z,130
2017-01-13T08:44:30.126Z,140
2017-01-13T08:45:41.530Z,150
2017-01-13T08:46:52.946Z,165
2017-01-13T08:48:04.379Z,180
2017-01-13T08:49:15.850Z,210
2017-01-13T08:50:27.297Z,210
2017-01-13T08:51:38.929Z,365
2017-01-13T08:52:50.339Z,350
2017-01-13T08:54:01.746Z,345
2017-01-13T08:55:13.199Z,590
2017-01-13T08:56:24.607Z,650
2017-01-13T08:57:36.411Z,280
2017-01-13T08:58:48.015Z,580
2017-01-13T08:59:59.413Z,720
2017-01-13T09:01:10.866Z,545
2017-01-13T09:02:22.475Z,510
2017-01-13T09:03:33.875Z,610
2017-01-13T09:04:45.487Z,610
2017-01-13T09:05:56.896Z,525
2017-01-13T09:07:08.357Z,680
2017-01-13T09:08:19.755Z,715
2017-01-13T09:09:31.158Z,565
2017-01-13T09:10:42.556Z,595
2017-01-13T09:11:53.961Z,370
2017-01-13T09:13:05.408Z,355
2017-01-13T09:14:17.019Z,625
2017-01-13T09:15:28.619Z,715
2017-01-13T09:16:40.022Z,615
2017-01-13T09:17:51.688Z,685
2017-01-13T09:19:03.344Z,540
2017-01-13T09:20:14.744Z,340
2017-01-13T09:21:26.154Z,325
2017-01-13T09:22:37.556Z,335
2017-01-13T09:23:48.946Z,370
2017-01-13T09:25:00.398Z,1070
2017-01-13T09:26:11.803Z,1390
2017-01-13T09:27:23.618Z,1035
2017-01-13T09:28:35.013Z,770
2017-01-13T09:29:46.615Z,465
2017-01-13T09:30:58.065Z,455
2017-01-13T09:32:09.670Z,1120
2017-01-13T09:33:21.075Z,530
2017-01-13T09:34:32.480Z,320
2017-01-13T09:35:43.939Z,350
2017-01-13T09:36:55.554Z,310
2017-01-13T09:38:07.160Z,245
2017-01-13T09:39:18.563Z,225
2017-01-13T09:40:29.968Z,225
2017-01-13T09:41:41.426Z,235
2017-01-13T09:42:52.834Z,275
2017-01-13T09:44:04.241Z,285
2017-01-13T09:45:15.859Z,275
2017-01-13T09:46:27.264Z,645
2017-01-13T09:47:38.711Z,715
2017-01-13T09:48:50.117Z,860
2017-01-13T09:50:01.515Z,1220
2017-01-13T09:51:12.952Z,455
2017-01-13T09:52:24.356Z,350
2017-01-13T09:53:35.805Z,275
2017-01-13T09:54:47.203Z,235
2017-01-13T09:55:58.602Z,195
2017-01-13T09:57:10.023Z,230
2017-01-13T09:58:21.423Z,270
2017-01-13T09:59:32.872Z,555
2017-01-13T10:00:44.298Z,695
2017-01-13T10:01:55.898Z,540
2017-01-13T10:03:07.306Z,520
2017-01-13T10:04:18.722Z,555
2017-01-13T10:05:30.178Z,470
2017-01-13T10:06:41.589Z,1170
2017-01-13T10:07:52.993Z,1160
2017-01-13T10:09:04.394Z,1495
2017-01-13T10:10:15.804Z,720
2017-01-13T10:11:27.263Z,1645
2017-01-13T10:12:38.662Z,605
2017-01-13T10:13:50.269Z,295
2017-01-13T10:15:01.682Z,200
2017-01-13T10:16:13.101Z,145
2017-01-13T10:17:24.558Z,145
2017-01-13T10:18:35.952Z,125
2017-01-13T10:19:47.346Z,110
2017-01-13T10:20:58.753Z,105
2017-01-13T10:22:10.169Z,120
2017-01-13T10:23:21.625Z,115
2017-01-13T10:24:33.019Z,90
2017-01-13T10:25:44.423Z,80
2017-01-13T10:26:56.029Z,75
2017-01-13T10:28:07.634Z,80
2017-01-13T10:29:19.076Z,95
2017-01-13T10:30:30.471Z,105
2017-01-13T10:31:42.071Z,135
2017-01-13T10:32:53.678Z,105
2017-01-13T10:34:05.069Z,80
2017-01-13T10:35:16.713Z,70
2017-01-13T10:36:28.119Z,75
2017-01-13T10:37:39.717Z,85
2017-01-13T10:38:51.114Z,90
2017-01-13T10:40:02.717Z,100
2017-01-13T10:41:14.391Z,120
2017-01-13T10:42:25.791Z,125
2017-01-13T10:43:37.186Z,125
2017-01-13T10:44:48.620Z,125
2017-01-13T10:46:00.029Z,125
2017-01-13T10:47:11.480Z,125
2017-01-13T10:48:22.882Z,120
2017-01-13T10:49:34.480Z,130
2017-01-13T10:50:45.886Z,140
2017-01-13T10:51:57.278Z,150
2017-01-13T10:53:08.724Z,150
2017-01-13T10:54:20.358Z,155
2017-01-13T10:55:31.763Z,200
2017-01-13T10:56:43.164Z,245
2017-01-13T10:57:54.562Z,225
2017-01-13T10:59:06.008Z,170
2017-01-13T11:00:17.414Z,160
2017-01-13T11:01:28.804Z,200
2017-01-13T11:02:40.195Z,205
2017-01-13T11:03:51.801Z,215
2017-01-13T11:05:03.462Z,280
2017-01-13T11:06:14.865Z,380
2017-01-13T11:07:26.266Z,280
2017-01-13T11:08:37.667Z,165
2017-01-13T11:09:49.069Z,175
2017-01-13T11:11:00.486Z,305
2017-01-13T11:12:11.884Z,430
2017-01-13T11:13:23.284Z,505
2017-01-13T11:14:34.686Z,475
2017-01-13T11:15:46.135Z,445
2017-01-13T11:16:57.547Z,1195
2017-01-13T11:18:09.167Z,765
2017-01-13T11:19:20.574Z,585
2017-01-13T11:20:32.183Z,660
2017-01-13T11:21:43.644Z,795
2017-01-13T11:22:55.051Z,490
2017-01-13T11:24:06.449Z,1085
2017-01-13T11:25:17.856Z,935
2017-01-13T11:26:29.455Z,530
2017-01-13T11:27:40.919Z,440
2017-01-13T11:28:52.328Z,425
2017-01-13T11:30:03.730Z,420
2017-01-13T11:31:15.335Z,440
2017-01-13T11:32:26.734Z,610
2017-01-13T11:33:38.378Z,395
2017-01-13T11:34:49.767Z,305
2017-01-13T11:36:01.168Z,305
2017-01-13T11:37:12.767Z,290
2017-01-13T11:38:24.176Z,280
2017-01-13T11:39:35.834Z,240
2017-01-13T11:40:47.230Z,190
2017-01-13T11:41:58.638Z,155
2017-01-13T11:43:10.039Z,140
2017-01-13T11:44:21.443Z,135
2017-01-13T11:45:32.902Z,120
2017-01-13T11:46:44.300Z,105
2017-01-13T11:47:55.696Z,100
2017-01-13T11:49:07.298Z,110
2017-01-13T11:50:18.910Z,115
2017-01-13T11:51:30.564Z,120
2017-01-13T11:52:42.369Z,135
2017-01-13T11:53:53.775Z,130
2017-01-13T11:55:05.174Z,145
2017-01-13T11:56:16.574Z,185
2017-01-13T11:57:28.027Z,200
2017-01-13T11:58:39.427Z,220
2017-01-13T11:59:50.830Z,215
2017-01-13T12:01:02.235Z,200
2017-01-13T12:02:13.645Z,185
2017-01-13T12:03:25.098Z,205
2017-01-13T12:04:36.493Z,195
2017-01-13T12:05:47.898Z,185
2017-01-13T12:06:59.310Z,185
2017-01-13T12:08:10.703Z,190
2017-01-13T12:09:22.164Z,200
2017-01-13T12:10:33.585Z,190
2017-01-13T12:11:44.997Z,200
2017-01-13T12:12:56.393Z,210
2017-01-13T12:14:07.794Z,220
2017-01-13T12:15:19.455Z,230
2017-01-13T12:16:30.852Z,220
2017-01-13T12:17:42.255Z,215
2017-01-13T12:18:53.655Z,230
2017-01-13T12:20:05.064Z,235
2017-01-13T12:21:16.516Z,245
2017-01-13T12:22:27.912Z,270
2017-01-13T12:23:39.321Z,275
2017-01-13T12:24:51.132Z,285
2017-01-13T12:26:02.943Z,270
2017-01-13T12:27:14.394Z,265
2017-01-13T12:28:25.787Z,270
2017-01-13T12:29:37.188Z,250
2017-01-13T12:30:48.996Z,215
2017-01-13T12:32:00.401Z,250
2017-01-13T12:33:11.862Z,200
2017-01-13T12:34:23.271Z,145
2017-01-13T12:35:34.675Z,140
2017-01-13T12:36:46.072Z,190
2017-01-13T12:37:57.495Z,195
2017-01-13T12:39:08.953Z,355
2017-01-13T12:40:20.354Z,300
2017-01-13T12:41:31.767Z,670
2017-01-13T12:42:43.369Z,765
2017-01-13T12:43:54.770Z,315
2017-01-13T12:45:06.422Z,725
2017-01-13T12:46:17.823Z,680
2017-01-13T12:47:29.230Z,300
2017-01-13T12:48:40.829Z,740
2017-01-13T12:49:52.237Z,320
2017-01-13T12:51:03.649Z,260
2017-01-13T12:52:15.086Z,595
2017-01-13T12:53:26.495Z,315
2017-01-13T12:54:37.898Z,665
2017-01-13T12:55:49.547Z,295
2017-01-13T12:57:01.149Z,440
2017-01-13T12:58:12.758Z,330
2017-01-13T12:59:24.361Z,625
2017-01-13T13:00:35.755Z,620
2017-01-13T13:01:47.411Z,540
2017-01-13T13:02:58.823Z,235
2017-01-13T13:04:10.230Z,245
2017-01-13T13:05:21.631Z,260
2017-01-13T13:06:33.033Z,535
2017-01-13T13:07:44.494Z,260
2017-01-13T13:08:55.902Z,560
2017-01-13T13:10:07.304Z,520
2017-01-13T13:11:18.713Z,265
2017-01-13T13:12:30.124Z,480
2017-01-13T13:13:41.573Z,245
2017-01-13T13:14:52.998Z,250
2017-01-13T13:16:04.406Z,270
2017-01-13T13:17:15.801Z,315
2017-01-13T13:18:27.209Z,380
2017-01-13T13:19:38.667Z,330
2017-01-13T13:20:50.075Z,365
2017-01-13T13:22:01.473Z,395
2017-01-13T13:23:12.895Z,430
2017-01-13T13:24:24.293Z,350
2017-01-13T13:25:35.749Z,415
2017-01-13T13:26:47.368Z,335
2017-01-13T13:27:58.778Z,230
2017-01-13T13:29:10.185Z,295
2017-01-13T13:30:21.590Z,260
2017-01-13T13:31:33.045Z,230
2017-01-13T13:32:44.447Z,255
2017-01-13T13:33:55.847Z,220
2017-01-13T13:35:07.253Z,340
2017-01-13T13:36:18.665Z,270
2017-01-13T13:37:30.117Z,200
2017-01-13T13:38:41.516Z,245
2017-01-13T13:39:52.922Z,195
2017-01-13T13:41:04.338Z,210
2017-01-13T13:42:15.742Z,180
2017-01-13T13:43:27.404Z,220
2017-01-13T13:44:38.813Z,210
2017-01-13T13:45:50.421Z,175
2017-01-13T13:47:01.829Z,150
2017-01-13T13:48:13.230Z,140
2017-01-13T13:49:24.679Z,135
2017-01-13T13:50:36.081Z,130
2017-01-13T13:51:47.487Z,135
2017-01-13T13:52:58.893Z,135
2017-01-13T13:54:10.309Z,130
2017-01-13T13:55:21.757Z,135
2017-01-13T13:56:33.187Z,145
2017-01-13T13:57:44.621Z,140
2017-01-13T13:58:56.027Z,205
2017-01-13T14:00:07.432Z,225
2017-01-13T14:01:19.288Z,210
2017-01-13T14:02:30.901Z,185
2017-01-13T14:03:42.309Z,180
2017-01-13T14:04:53.712Z,165
2017-01-13T14:06:05.106Z,165
2017-01-13T14:07:16.558Z,170
2017-01-13T14:08:27.961Z,170
2017-01-13T14:09:39.356Z,170
2017-01-13T14:10:50.752Z,190
2017-01-13T14:12:02.152Z,190
2017-01-13T14:13:13.636Z,195
2017-01-13T14:14:25.042Z,195
2017-01-13T14:15:36.442Z,185
2017-01-13T14:16:48.050Z,150
2017-01-13T14:17:59.454Z,150
2017-01-13T14:19:11.106Z,145
2017-01-13T14:20:22.522Z,150
2017-01-13T14:21:34.130Z,150
2017-01-13T14:22:45.738Z,155
2017-01-13T14:23:57.137Z,150
2017-01-13T14:25:08.597Z,130
2017-01-13T14:26:20.202Z,125
2017-01-13T14:27:31.819Z,125
2017-01-13T14:28:43.225Z,125
2017-01-13T14:29:54.634Z,125
2017-01-13T14:31:06.241Z,115
2017-01-13T14:32:17.657Z,125
2017-01-13T14:33:29.089Z,120
2017-01-13T14:34:40.695Z,105
2017-01-13T14:35:52.149Z,105
2017-01-13T14:37:03.760Z,95
2017-01-13T14:38:15.157Z,95
2017-01-13T14:39:26.566Z,90
2017-01-13T14:40:37.998Z,90
2017-01-13T14:41:49.480Z,85
2017-01-13T14:43:00.885Z,85
2017-01-13T14:44:12.289Z,80
2017-01-13T14:45:23.895Z,85
2017-01-13T14:46:35.325Z,80
2017-01-13T14:47:46.766Z,75
2017-01-13T14:48:58.174Z,75
2017-01-13T14:50:09.579Z,75
2017-01-13T14:51:21.180Z,75
2017-01-13T14:52:32.593Z,70
2017-01-13T14:53:44.047Z,75
2017-01-13T14:54:56.045Z,85
2017-01-13T14:56:07.657Z,85
2017-01-13T14:57:19.058Z,80
2017-01-13T14:58:30.465Z,70
2017-01-13T14:59:41.913Z,70
2017-01-13T15:00:53.313Z,70
2017-01-13T15:02:04.714Z,70
2017-01-13T15:03:16.318Z,65
2017-01-13T15:04:27.935Z,60
2017-01-13T15:05:39.389Z,60
2017-01-13T15:06:50.796Z,55
2017-01-13T15:08:02.206Z,55
2017-01-13T15:09:13.611Z,50
2017-01-13T15:10:25.009Z,45
2017-01-13T15:11:36.663Z,45
2017-01-13T15:12:48.067Z,40
2017-01-13T15:13:59.670Z,40
2017-01-13T15:15:11.063Z,40
2017-01-13T15:16:22.478Z,40
2017-01-13T15:17:33.943Z,35
2017-01-13T15:18:45.343Z,35
2017-01-13T15:19:56.738Z,35
2017-01-13T15:21:08.144Z,35
2017-01-13T15:22:19.555Z,35
2017-01-13T15:23:31.036Z,30
2017-01-13T15:24:42.439Z,30
2017-01-13T15:25:53.834Z,30
2017-01-13T15:27:05.440Z,25
2017-01-13T15:28:16.846Z,25
2017-01-13T15:29:28.299Z,25
2017-01-13T15:30:39.694Z,20
2017-01-13T15:31:51.091Z,20
2017-01-13T15:33:02.498Z,20
2017-01-13T15:34:14.112Z,15
2017-01-13T15:35:25.578Z,15
2017-01-13T15:36:36.979Z,15
2017-01-13T15:37:48.387Z,10
2017-01-13T15:38:59.789Z,10
2017-01-13T15:40:11.195Z,10
2017-01-13T15:41:22.645Z,10
2017-01-13T15:42:34.043Z,10
2017-01-13T15:43:45.443Z,5
2017-01-13T15:44:56.848Z,5
2017-01-13T15:46:08.287Z,5
2017-01-13T15:47:19.732Z,5
2017-01-13T15:48:31.128Z,5
2017-01-13T15:49:42.723Z,5
2017-01-13T15:50:54.131Z,5
2017-01-13T15:52:05.758Z,0
2017-01-13T15:53:17.208Z,0
2017-01-13T15:54:28.606Z,0
2017-01-13T15:55:40.016Z,0
2017-01-13T15:56:51.421Z,0
2017-01-13T15:58:02.838Z,0
2017-01-13T15:59:14.498Z,0
2017-01-13T16:00:25.926Z,0
2017-01-13T16:01:37.326Z,0
2017-01-13T16:02:48.730Z,0
2017-01-13T16:04:00.126Z,0
2017-01-13T16:05:11.583Z,0
2017-01-13T16:06:22.979Z,0
2017-01-13T16:07:34.388Z,0
2017-01-13T16:08:45.787Z,0
2017-01-13T16:09:57.398Z,0
2017-01-13T16:11:08.998Z,0
2017-01-13T16:12:20.601Z,0
2017-01-13T16:13:31.998Z,0
2017-01-13T16:14:43.401Z,0
2017-01-13T16:15:54.852Z,0
2017-01-13T16:17:06.258Z,0
2017-01-13T16:18:17.669Z,0
2017-01-13T16:19:29.064Z,0
2017-01-13T16:20:40.465Z,0
2017-01-13T16:21:51.953Z,0
2017-01-13T16:23:03.372Z,0
2017-01-13T16:24:14.771Z,0
2017-01-13T16:25:26.174Z,0
2017-01-13T16:26:37.777Z,0
2017-01-13T16:27:49.426Z,0
2017-01-13T16:29:01.039Z,0
2017-01-13T16:30:12.643Z,0
2017-01-13T16:31:24.048Z,0
2017-01-13T16:32:35.447Z,0
2017-01-13T16:33:46.902Z,0
2017-01-13T16:34:58.298Z,0
2017-01-13T16:36:09.692Z,0
2017-01-13T16:37:21.094Z,0
2017-01-13T16:38:32.490Z,0
2017-01-13T16:39:43.946Z,0
2017-01-13T16:40:55.362Z,0
2017-01-13T16:42:06.756Z,0
2017-01-13T16:43:18.363Z,0
2017-01-13T16:44:29.767Z,0
2017-01-13T16:45:41.216Z,0
2017-01-13T16:46:52.613Z,0
2017-01-13T16:48:04.013Z,0
2017-01-13T16:49:15.404Z,0
2017-01-13T16:50:26.808Z,0
2017-01-13T16:51:38.254Z,0
2017-01-13T16:52:49.643Z,0
2017-01-13T16:54:01.049Z,0
2017-01-13T16:55:12.446Z,0
2017-01-13T16:56:23.848Z,0
2017-01-13T16:57:35.496Z,0
2017-01-13T16:58:46.893Z,0
2017-01-13T16:59:58.301Z,0
2017-01-13T17:01:09.702Z,0
2017-01-13T17:02:21.096Z,0
2017-01-13T17:03:32.539Z,0
2017-01-13T17:04:43.940Z,0
2017-01-13T17:05:55.340Z,0